Bhiwandi, India
Current Conditions -  °F | °C
As of 7:40 AM on Monday 24 Nov 2014 (Local Time) from VABB Reporting Station
Smoke Smoke  
Wind Chill: 81°   Ceiling: Unl
Heat Index: 82°   Visibility: 1.3mi
Dew Point: 63°   Wind: 6mph
Humidity: 54%   Direction: 30°NNE
Pressure: 29.88"   Gusts: NA
Location:  19.3°N, 73.05°E
Report Text: VABB 240240Z 03005KT 2200 FU NSC 27/17 Q1012 NOSIG
Loading
Personal Weather Stations






























Interactive Weather Map New forecast layout! Learn more

10-Day Weather Forecast

Advertisements
Track Severe Weather on mobile